sensor_id;sensor_type;location;lat;lon;timestamp;P1;P2;P0
68341;PMS7003;55668;52.310;21.066;2023-08-20T00:30:14;22;22;
68341;PMS7003;55668;52.310;21.066;2023-08-20T00:41:41;22;22;
68341;PMS7003;55668;52.310;21.066;2023-08-20T01:15:10;23;23;
68341;PMS7003;55668;52.310;21.066;2023-08-20T01:59:51;21;21;
68341;PMS7003;55668;52.310;21.066;2023-08-20T02:31:04;21;21;
68341;PMS7003;55668;52.310;21.066;2023-08-20T02:44:41;21;20;
68341;PMS7003;55668;52.310;21.066;2023-08-20T03:03:41;22;22;
68341;PMS7003;55668;52.310;21.066;2023-08-20T03:13:33;20;20;
68341;PMS7003;55668;52.310;21.066;2023-08-20T03:29:12;20;20;
68341;PMS7003;55668;52.310;21.066;2023-08-20T03:59:25;20;20;
68341;PMS7003;55668;52.310;21.066;2023-08-20T04:16:29;18;18;
68341;PMS7003;55668;52.310;21.066;2023-08-20T04:29:56;21;21;
68341;PMS7003;55668;52.310;21.066;2023-08-20T04:46:40;23;23;
68341;PMS7003;55668;52.310;21.066;2023-08-20T05:00:58;23;23;
68341;PMS7003;55668;52.310;21.066;2023-08-20T05:19:42;22;22;
68341;PMS7003;55668;52.310;21.066;2023-08-20T05:31:53;23;23;
68341;PMS7003;55668;52.310;21.066;2023-08-20T05:47:06;18;18;
68341;PMS7003;55668;52.310;21.066;2023-08-20T06:03:07;18;18;
68341;PMS7003;55668;52.310;21.066;2023-08-20T06:39:33;22;22;
68341;PMS7003;55668;52.310;21.066;2023-08-20T06:48:54;23;22;
68341;PMS7003;55668;52.310;21.066;2023-08-20T07:07:46;21;21;
68341;PMS7003;55668;52.310;21.066;2023-08-20T07:18:45;21;21;
68341;PMS7003;55668;52.310;21.066;2023-08-20T07:37:35;20;20;
68341;PMS7003;55668;52.310;21.066;2023-08-20T07:51:52;20;20;
68341;PMS7003;55668;52.310;21.066;2023-08-20T08:01:24;23;20;
68341;PMS7003;55668;52.310;21.066;2023-08-20T08:12:36;18;18;
68341;PMS7003;55668;52.310;21.066;2023-08-20T08:35:07;19;19;
68341;PMS7003;55668;52.310;21.066;2023-08-20T08:43:03;18;18;
68341;PMS7003;55668;52.310;21.066;2023-08-20T09:00:22;19;19;
68341;PMS7003;55668;52.310;21.066;2023-08-20T09:29:08;18;18;
68341;PMS7003;55668;52.310;21.066;2023-08-20T09:46:49;17;17;
68341;PMS7003;55668;52.310;21.066;2023-08-20T10:15:20;15;15;
68341;PMS7003;55668;52.310;21.066;2023-08-20T11:05:03;19;19;
68341;PMS7003;55668;52.310;21.066;2023-08-20T11:18:18;17;17;
68341;PMS7003;55668;52.310;21.066;2023-08-20T11:33:57;15;15;
68341;PMS7003;55668;52.310;21.066;2023-08-20T11:49:44;19;19;
68341;PMS7003;55668;52.310;21.066;2023-08-20T12:02:44;16;16;
68341;PMS7003;55668;52.310;21.066;2023-08-20T12:18:53;18;18;
68341;PMS7003;55668;52.310;21.066;2023-08-20T12:36:45;19;19;
68341;PMS7003;55668;52.310;21.066;2023-08-20T12:48:38;17;17;
68341;PMS7003;55668;52.310;21.066;2023-08-20T13:04:36;18;18;
68341;PMS7003;55668;52.310;21.066;2023-08-20T13:20:50;16;16;
68341;PMS7003;55668;52.310;21.066;2023-08-20T13:34:56;17;17;
68341;PMS7003;55668;52.310;21.066;2023-08-20T14:05:27;16;16;
68341;PMS7003;55668;52.310;21.066;2023-08-20T14:21:21;18;18;
68341;PMS7003;55668;52.310;21.066;2023-08-20T14:36:38;19;19;
68341;PMS7003;55668;52.310;21.066;2023-08-20T14:53:35;19;18;
68341;PMS7003;55668;52.310;21.066;2023-08-20T15:25:54;16;16;
68341;PMS7003;55668;52.310;21.066;2023-08-20T15:39:41;17;17;
68341;PMS7003;55668;52.310;21.066;2023-08-20T15:52:48;16;16;
68341;PMS7003;55668;52.310;21.066;2023-08-20T16:09:06;15;15;
68341;PMS7003;55668;52.310;21.066;2023-08-20T16:25:03;17;17;
68341;PMS7003;55668;52.310;21.066;2023-08-20T16:40:22;16;16;
68341;PMS7003;55668;52.310;21.066;2023-08-20T16:54:46;18;18;
68341;PMS7003;55668;52.310;21.066;2023-08-20T17:15:14;19;19;
68341;PMS7003;55668;52.310;21.066;2023-08-20T17:40:29;19;19;
68341;PMS7003;55668;52.310;21.066;2023-08-20T17:56:59;17;17;
68341;PMS7003;55668;52.310;21.066;2023-08-20T18:11:45;19;19;
68341;PMS7003;55668;52.310;21.066;2023-08-20T18:29:27;17;17;
68341;PMS7003;55668;52.310;21.066;2023-08-20T18:42:29;17;17;
68341;PMS7003;55668;52.310;21.066;2023-08-20T19:00:16;17;15;
68341;PMS7003;55668;52.310;21.066;2023-08-20T19:13:51;16;16;
68341;PMS7003;55668;52.310;21.066;2023-08-20T19:32:37;18;18;
68341;PMS7003;55668;52.310;21.066;2023-08-20T19:43:35;16;16;
68341;PMS7003;55668;52.310;21.066;2023-08-20T19:58:45;17;17;
68341;PMS7003;55668;52.310;21.066;2023-08-20T20:15:55;20;20;
68341;PMS7003;55668;52.310;21.066;2023-08-20T20:29:18;23;23;
68341;PMS7003;55668;52.310;21.066;2023-08-20T20:46:56;21;21;
68341;PMS7003;55668;52.310;21.066;2023-08-20T20:59:53;22;22;
68341;PMS7003;55668;52.310;21.066;2023-08-20T21:15:12;21;21;
68341;PMS7003;55668;52.310;21.066;2023-08-20T21:31:33;20;20;
68341;PMS7003;55668;52.310;21.066;2023-08-20T21:48:51;24;22;
68341;PMS7003;55668;52.310;21.066;2023-08-20T22:04:13;23;23;
68341;PMS7003;55668;52.310;21.066;2023-08-20T22:16:57;20;20;
68341;PMS7003;55668;52.310;21.066;2023-08-20T23:48:38;19;19;
